sensor_id;sensor_type;location;lat;lon;timestamp;P1;durP1;ratioP1;P2;durP2;ratioP2
28311;SDS011;15572;48.810;9.148;2023-05-29T00:00:51;11.33;;;5.13;;
28311;SDS011;15572;48.810;9.148;2023-05-29T00:05:48;9.77;;;5.90;;
28311;SDS011;15572;48.810;9.148;2023-05-29T00:10:44;10.40;;;5.80;;
28311;SDS011;15572;48.810;9.148;2023-05-29T00:15:41;8.37;;;4.90;;
28311;SDS011;15572;48.810;9.148;2023-05-29T00:20:39;8.90;;;5.53;;
28311;SDS011;15572;48.810;9.148;2023-05-29T00:25:35;11.47;;;5.70;;
28311;SDS011;15572;48.810;9.148;2023-05-29T00:30:31;8.47;;;5.50;;
28311;SDS011;15572;48.810;9.148;2023-05-29T00:35:28;10.80;;;5.33;;
28311;SDS011;15572;48.810;9.148;2023-05-29T00:40:26;10.07;;;5.57;;
28311;SDS011;15572;48.810;9.148;2023-05-29T00:45:22;9.10;;;5.50;;
28311;SDS011;15572;48.810;9.148;2023-05-29T00:50:20;10.40;;;5.90;;
28311;SDS011;15572;48.810;9.148;2023-05-29T00:55:18;9.70;;;5.63;;
28311;SDS011;15572;48.810;9.148;2023-05-29T01:00:17;9.00;;;5.47;;
28311;SDS011;15572;48.810;9.148;2023-05-29T01:05:15;10.83;;;5.70;;
28311;SDS011;15572;48.810;9.148;2023-05-29T01:10:11;9.67;;;6.10;;
28311;SDS011;15572;48.810;9.148;2023-05-29T01:15:16;9.23;;;5.57;;
28311;SDS011;15572;48.810;9.148;2023-05-29T01:20:22;8.83;;;5.40;;
28311;SDS011;15572;48.810;9.148;2023-05-29T01:25:29;9.53;;;5.63;;
28311;SDS011;15572;48.810;9.148;2023-05-29T01:30:31;9.53;;;6.10;;
28311;SDS011;15572;48.810;9.148;2023-05-29T01:35:29;11.50;;;6.00;;
28311;SDS011;15572;48.810;9.148;2023-05-29T01:40:25;12.43;;;6.27;;
28311;SDS011;15572;48.810;9.148;2023-05-29T01:45:22;9.17;;;6.17;;
28311;SDS011;15572;48.810;9.148;2023-05-29T01:50:20;10.37;;;5.80;;
28311;SDS011;15572;48.810;9.148;2023-05-29T01:55:19;10.63;;;5.90;;
28311;SDS011;15572;48.810;9.148;2023-05-29T02:00:16;11.90;;;6.10;;
28311;SDS011;15572;48.810;9.148;2023-05-29T02:05:14;8.90;;;5.87;;
28311;SDS011;15572;48.810;9.148;2023-05-29T02:10:12;10.40;;;6.03;;
28311;SDS011;15572;48.810;9.148;2023-05-29T02:15:09;9.60;;;5.70;;
28311;SDS011;15572;48.810;9.148;2023-05-29T02:20:06;9.80;;;6.00;;
28311;SDS011;15572;48.810;9.148;2023-05-29T02:25:03;10.13;;;6.03;;
28311;SDS011;15572;48.810;9.148;2023-05-29T02:30:02;13.63;;;6.63;;
28311;SDS011;15572;48.810;9.148;2023-05-29T02:35:00;10.47;;;6.10;;
28311;SDS011;15572;48.810;9.148;2023-05-29T02:39:56;8.20;;;5.70;;
28311;SDS011;15572;48.810;9.148;2023-05-29T02:44:53;11.43;;;5.70;;
28311;SDS011;15572;48.810;9.148;2023-05-29T02:49:51;9.83;;;6.13;;
28311;SDS011;15572;48.810;9.148;2023-05-29T02:54:47;8.90;;;5.80;;
28311;SDS011;15572;48.810;9.148;2023-05-29T02:59:44;11.77;;;6.20;;
28311;SDS011;15572;48.810;9.148;2023-05-29T03:04:40;8.47;;;5.70;;
28311;SDS011;15572;48.810;9.148;2023-05-29T03:09:39;8.97;;;5.53;;
28311;SDS011;15572;48.810;9.148;2023-05-29T03:14:36;9.63;;;6.07;;
28311;SDS011;15572;48.810;9.148;2023-05-29T03:19:32;10.23;;;6.10;;
28311;SDS011;15572;48.810;9.148;2023-05-29T03:24:29;10.63;;;5.97;;
28311;SDS011;15572;48.810;9.148;2023-05-29T03:29:27;10.60;;;5.60;;
28311;SDS011;15572;48.810;9.148;2023-05-29T03:34:23;11.87;;;6.23;;
28311;SDS011;15572;48.810;9.148;2023-05-29T03:39:20;12.93;;;6.13;;
28311;SDS011;15572;48.810;9.148;2023-05-29T03:44:16;9.53;;;5.70;;
28311;SDS011;15572;48.810;9.148;2023-05-29T03:49:14;11.33;;;6.07;;
28311;SDS011;15572;48.810;9.148;2023-05-29T03:54:10;9.63;;;5.93;;
28311;SDS011;15572;48.810;9.148;2023-05-29T03:59:07;11.33;;;6.03;;
28311;SDS011;15572;48.810;9.148;2023-05-29T04:04:04;8.10;;;5.77;;
28311;SDS011;15572;48.810;9.148;2023-05-29T04:09:01;10.07;;;5.67;;
28311;SDS011;15572;48.810;9.148;2023-05-29T04:13:58;9.13;;;5.70;;
28311;SDS011;15572;48.810;9.148;2023-05-29T04:18:55;12.30;;;5.67;;
28311;SDS011;15572;48.810;9.148;2023-05-29T04:23:51;10.83;;;5.60;;
28311;SDS011;15572;48.810;9.148;2023-05-29T04:28:49;9.07;;;5.60;;
28311;SDS011;15572;48.810;9.148;2023-05-29T04:33:47;12.57;;;6.07;;
28311;SDS011;15572;48.810;9.148;2023-05-29T04:38:44;9.80;;;6.20;;
28311;SDS011;15572;48.810;9.148;2023-05-29T04:43:42;10.10;;;6.20;;
28311;SDS011;15572;48.810;9.148;2023-05-29T04:48:40;14.43;;;6.20;;
28311;SDS011;15572;48.810;9.148;2023-05-29T04:53:37;10.77;;;5.80;;
28311;SDS011;15572;48.810;9.148;2023-05-29T04:58:34;9.07;;;5.50;;
28311;SDS011;15572;48.810;9.148;2023-05-29T05:03:30;9.70;;;5.50;;
28311;SDS011;15572;48.810;9.148;2023-05-29T05:08:29;11.00;;;5.83;;
28311;SDS011;15572;48.810;9.148;2023-05-29T05:13:28;10.27;;;5.60;;
28311;SDS011;15572;48.810;9.148;2023-05-29T05:18:24;9.47;;;5.20;;
28311;SDS011;15572;48.810;9.148;2023-05-29T05:23:20;9.73;;;5.60;;
28311;SDS011;15572;48.810;9.148;2023-05-29T05:28:18;12.77;;;5.33;;
28311;SDS011;15572;48.810;9.148;2023-05-29T05:33:15;11.83;;;5.33;;
28311;SDS011;15572;48.810;9.148;2023-05-29T05:38:11;9.10;;;5.43;;
28311;SDS011;15572;48.810;9.148;2023-05-29T05:43:08;11.03;;;5.53;;
28311;SDS011;15572;48.810;9.148;2023-05-29T05:48:06;9.03;;;5.07;;
28311;SDS011;15572;48.810;9.148;2023-05-29T05:53:02;7.43;;;4.87;;
28311;SDS011;15572;48.810;9.148;2023-05-29T05:57:58;9.07;;;5.17;;
28311;SDS011;15572;48.810;9.148;2023-05-29T06:02:55;8.87;;;4.97;;
28311;SDS011;15572;48.810;9.148;2023-05-29T06:07:53;8.97;;;5.10;;
28311;SDS011;15572;48.810;9.148;2023-05-29T06:12:49;9.97;;;5.13;;
28311;SDS011;15572;48.810;9.148;2023-05-29T06:17:47;8.77;;;5.57;;
28311;SDS011;15572;48.810;9.148;2023-05-29T06:22:43;11.27;;;5.30;;
28311;SDS011;15572;48.810;9.148;2023-05-29T06:27:46;10.67;;;5.23;;
28311;SDS011;15572;48.810;9.148;2023-05-29T06:32:42;8.10;;;4.93;;
28311;SDS011;15572;48.810;9.148;2023-05-29T06:37:39;7.80;;;5.80;;
28311;SDS011;15572;48.810;9.148;2023-05-29T06:42:35;8.90;;;5.50;;
28311;SDS011;15572;48.810;9.148;2023-05-29T06:47:33;11.87;;;5.43;;
28311;SDS011;15572;48.810;9.148;2023-05-29T06:52:30;10.10;;;5.80;;
28311;SDS011;15572;48.810;9.148;2023-05-29T06:57:26;8.43;;;5.20;;
28311;SDS011;15572;48.810;9.148;2023-05-29T07:02:23;8.07;;;5.13;;
28311;SDS011;15572;48.810;9.148;2023-05-29T07:07:20;7.97;;;5.37;;
28311;SDS011;15572;48.810;9.148;2023-05-29T07:12:17;9.10;;;5.20;;
28311;SDS011;15572;48.810;9.148;2023-05-29T07:17:13;10.90;;;5.07;;
28311;SDS011;15572;48.810;9.148;2023-05-29T07:22:10;7.83;;;4.60;;
28311;SDS011;15572;48.810;9.148;2023-05-29T07:27:08;8.00;;;4.50;;
28311;SDS011;15572;48.810;9.148;2023-05-29T07:32:04;7.57;;;4.50;;
28311;SDS011;15572;48.810;9.148;2023-05-29T07:37:02;7.90;;;4.97;;
28311;SDS011;15572;48.810;9.148;2023-05-29T07:42:00;8.30;;;4.67;;
28311;SDS011;15572;48.810;9.148;2023-05-29T07:46:58;9.13;;;4.60;;
28311;SDS011;15572;48.810;9.148;2023-05-29T07:51:55;8.33;;;4.93;;
28311;SDS011;15572;48.810;9.148;2023-05-29T07:56:51;8.17;;;4.80;;
28311;SDS011;15572;48.810;9.148;2023-05-29T08:01:48;9.10;;;4.63;;
28311;SDS011;15572;48.810;9.148;2023-05-29T08:06:46;6.63;;;4.70;;
28311;SDS011;15572;48.810;9.148;2023-05-29T08:11:42;8.33;;;4.57;;
28311;SDS011;15572;48.810;9.148;2023-05-29T08:16:40;6.83;;;4.60;;
28311;SDS011;15572;48.810;9.148;2023-05-29T08:21:36;10.33;;;4.83;;
28311;SDS011;15572;48.810;9.148;2023-05-29T08:26:35;7.60;;;4.95;;
28311;SDS011;15572;48.810;9.148;2023-05-29T08:31:31;7.15;;;4.80;;
28311;SDS011;15572;48.810;9.148;2023-05-29T08:36:27;9.18;;;4.60;;
28311;SDS011;15572;48.810;9.148;2023-05-29T08:41:25;9.30;;;4.90;;
28311;SDS011;15572;48.810;9.148;2023-05-29T08:46:25;10.82;;;5.13;;
28311;SDS011;15572;48.810;9.148;2023-05-29T08:51:23;7.55;;;4.93;;
28311;SDS011;15572;48.810;9.148;2023-05-29T08:56:27;7.57;;;4.50;;
28311;SDS011;15572;48.810;9.148;2023-05-29T09:01:24;9.75;;;5.05;;
28311;SDS011;15572;48.810;9.148;2023-05-29T09:06:22;8.10;;;4.47;;
28311;SDS011;15572;48.810;9.148;2023-05-29T09:11:28;8.15;;;4.80;;
28311;SDS011;15572;48.810;9.148;2023-05-29T09:16:25;11.82;;;5.22;;
28311;SDS011;15572;48.810;9.148;2023-05-29T09:21:25;7.57;;;4.97;;
28311;SDS011;15572;48.810;9.148;2023-05-29T09:26:24;8.30;;;4.72;;
28311;SDS011;15572;48.810;9.148;2023-05-29T09:31:22;6.93;;;4.40;;
28311;SDS011;15572;48.810;9.148;2023-05-29T09:36:20;9.57;;;4.72;;
28311;SDS011;15572;48.810;9.148;2023-05-29T09:41:21;9.25;;;4.60;;
28311;SDS011;15572;48.810;9.148;2023-05-29T09:46:18;6.95;;;4.65;;
28311;SDS011;15572;48.810;9.148;2023-05-29T09:51:22;7.13;;;4.78;;
28311;SDS011;15572;48.810;9.148;2023-05-29T09:56:20;8.98;;;4.75;;
28311;SDS011;15572;48.810;9.148;2023-05-29T10:01:19;7.20;;;4.45;;
28311;SDS011;15572;48.810;9.148;2023-05-29T10:06:18;12.63;;;4.50;;
28311;SDS011;15572;48.810;9.148;2023-05-29T10:11:18;7.72;;;4.55;;
28311;SDS011;15572;48.810;9.148;2023-05-29T10:16:20;5.85;;;4.13;;
28311;SDS011;15572;48.810;9.148;2023-05-29T10:21:18;6.45;;;4.30;;
28311;SDS011;15572;48.810;9.148;2023-05-29T10:26:15;9.57;;;4.22;;
28311;SDS011;15572;48.810;9.148;2023-05-29T10:31:18;7.03;;;3.90;;
28311;SDS011;15572;48.810;9.148;2023-05-29T10:36:21;7.13;;;3.90;;
28311;SDS011;15572;48.810;9.148;2023-05-29T10:41:34;8.05;;;4.25;;
28311;SDS011;15572;48.810;9.148;2023-05-29T10:51:58;6.53;;;3.83;;
28311;SDS011;15572;48.810;9.148;2023-05-29T10:56:57;5.85;;;3.75;;
28311;SDS011;15572;48.810;9.148;2023-05-29T11:01:56;6.40;;;3.97;;
28311;SDS011;15572;48.810;9.148;2023-05-29T11:06:53;6.35;;;3.88;;
28311;SDS011;15572;48.810;9.148;2023-05-29T11:12:00;6.38;;;3.63;;
28311;SDS011;15572;48.810;9.148;2023-05-29T11:17:07;6.72;;;3.40;;
28311;SDS011;15572;48.810;9.148;2023-05-29T11:22:05;5.65;;;3.53;;
28311;SDS011;15572;48.810;9.148;2023-05-29T11:27:10;6.07;;;3.60;;
28311;SDS011;15572;48.810;9.148;2023-05-29T11:32:06;5.25;;;4.03;;
28311;SDS011;15572;48.810;9.148;2023-05-29T11:37:12;5.43;;;3.25;;
28311;SDS011;15572;48.810;9.148;2023-05-29T11:42:11;6.50;;;3.33;;
28311;SDS011;15572;48.810;9.148;2023-05-29T11:47:07;6.63;;;3.45;;
28311;SDS011;15572;48.810;9.148;2023-05-29T11:52:07;6.15;;;3.50;;
28311;SDS011;15572;48.810;9.148;2023-05-29T11:57:05;11.20;;;3.38;;
28311;SDS011;15572;48.810;9.148;2023-05-29T12:02:03;8.63;;;3.67;;
28311;SDS011;15572;48.810;9.148;2023-05-29T12:07:00;6.57;;;3.55;;
28311;SDS011;15572;48.810;9.148;2023-05-29T12:12:01;4.80;;;2.92;;
28311;SDS011;15572;48.810;9.148;2023-05-29T12:16:58;5.18;;;3.33;;
28311;SDS011;15572;48.810;9.148;2023-05-29T12:21:57;6.13;;;3.22;;
28311;SDS011;15572;48.810;9.148;2023-05-29T12:26:54;8.40;;;3.47;;
28311;SDS011;15572;48.810;9.148;2023-05-29T12:31:57;4.55;;;2.92;;
28311;SDS011;15572;48.810;9.148;2023-05-29T12:36:53;4.88;;;3.38;;
28311;SDS011;15572;48.810;9.148;2023-05-29T12:41:53;4.93;;;3.00;;
28311;SDS011;15572;48.810;9.148;2023-05-29T12:46:55;8.50;;;3.30;;
28311;SDS011;15572;48.810;9.148;2023-05-29T12:51:52;5.03;;;3.38;;
28311;SDS011;15572;48.810;9.148;2023-05-29T12:56:49;6.72;;;3.33;;
28311;SDS011;15572;48.810;9.148;2023-05-29T13:01:47;4.13;;;2.97;;
28311;SDS011;15572;48.810;9.148;2023-05-29T13:06:44;6.57;;;3.40;;
28311;SDS011;15572;48.810;9.148;2023-05-29T13:11:40;4.47;;;3.10;;
28311;SDS011;15572;48.810;9.148;2023-05-29T13:16:37;4.57;;;3.45;;
28311;SDS011;15572;48.810;9.148;2023-05-29T13:21:35;5.32;;;3.33;;
28311;SDS011;15572;48.810;9.148;2023-05-29T13:26:31;4.25;;;3.20;;
28311;SDS011;15572;48.810;9.148;2023-05-29T13:31:28;11.30;;;3.30;;
28311;SDS011;15572;48.810;9.148;2023-05-29T13:36:24;4.55;;;3.13;;
28311;SDS011;15572;48.810;9.148;2023-05-29T13:41:22;5.93;;;3.22;;
28311;SDS011;15572;48.810;9.148;2023-05-29T13:46:18;8.52;;;3.47;;
28311;SDS011;15572;48.810;9.148;2023-05-29T13:51:15;6.65;;;3.28;;
28311;SDS011;15572;48.810;9.148;2023-05-29T13:56:11;4.28;;;3.40;;
28311;SDS011;15572;48.810;9.148;2023-05-29T14:01:09;5.28;;;2.95;;
28311;SDS011;15572;48.810;9.148;2023-05-29T14:06:06;4.82;;;3.42;;
28311;SDS011;15572;48.810;9.148;2023-05-29T14:11:02;4.25;;;3.17;;
28311;SDS011;15572;48.810;9.148;2023-05-29T14:15:59;5.90;;;3.47;;
28311;SDS011;15572;48.810;9.148;2023-05-29T14:20:57;3.75;;;2.97;;
28311;SDS011;15572;48.810;9.148;2023-05-29T14:25:53;5.30;;;3.58;;
28311;SDS011;15572;48.810;9.148;2023-05-29T14:30:49;6.95;;;3.42;;
28311;SDS011;15572;48.810;9.148;2023-05-29T14:35:46;4.75;;;3.20;;
28311;SDS011;15572;48.810;9.148;2023-05-29T14:40:44;5.00;;;3.17;;
28311;SDS011;15572;48.810;9.148;2023-05-29T14:45:40;5.60;;;3.65;;
28311;SDS011;15572;48.810;9.148;2023-05-29T14:50:37;5.70;;;3.40;;
28311;SDS011;15572;48.810;9.148;2023-05-29T14:55:33;3.95;;;2.92;;
28311;SDS011;15572;48.810;9.148;2023-05-29T15:00:33;4.88;;;3.10;;
28311;SDS011;15572;48.810;9.148;2023-05-29T15:05:30;5.15;;;3.25;;
28311;SDS011;15572;48.810;9.148;2023-05-29T15:10:26;6.47;;;3.47;;
28311;SDS011;15572;48.810;9.148;2023-05-29T15:15:23;8.20;;;3.80;;
28311;SDS011;15572;48.810;9.148;2023-05-29T15:20:21;4.38;;;3.20;;
28311;SDS011;15572;48.810;9.148;2023-05-29T15:25:18;5.60;;;3.53;;
28311;SDS011;15572;48.810;9.148;2023-05-29T15:30:17;5.07;;;3.10;;
28311;SDS011;15572;48.810;9.148;2023-05-29T15:35:14;5.40;;;3.35;;
28311;SDS011;15572;48.810;9.148;2023-05-29T15:40:13;5.28;;;3.53;;
28311;SDS011;15572;48.810;9.148;2023-05-29T15:45:09;5.15;;;3.70;;
28311;SDS011;15572;48.810;9.148;2023-05-29T15:50:06;3.90;;;2.83;;
28311;SDS011;15572;48.810;9.148;2023-05-29T15:55:03;5.38;;;3.10;;
28311;SDS011;15572;48.810;9.148;2023-05-29T16:00:02;5.85;;;3.38;;
28311;SDS011;15572;48.810;9.148;2023-05-29T16:04:59;4.03;;;3.00;;
28311;SDS011;15572;48.810;9.148;2023-05-29T16:09:55;6.10;;;3.10;;
28311;SDS011;15572;48.810;9.148;2023-05-29T16:14:52;6.47;;;3.15;;
28311;SDS011;15572;48.810;9.148;2023-05-29T16:19:49;5.30;;;3.50;;
28311;SDS011;15572;48.810;9.148;2023-05-29T16:24:49;7.07;;;3.10;;
28311;SDS011;15572;48.810;9.148;2023-05-29T16:29:46;4.63;;;3.15;;
28311;SDS011;15572;48.810;9.148;2023-05-29T16:34:43;3.78;;;3.22;;
28311;SDS011;15572;48.810;9.148;2023-05-29T16:39:41;5.28;;;2.72;;
28311;SDS011;15572;48.810;9.148;2023-05-29T16:44:37;4.40;;;3.20;;
28311;SDS011;15572;48.810;9.148;2023-05-29T16:49:34;2.95;;;2.67;;
28311;SDS011;15572;48.810;9.148;2023-05-29T16:54:30;3.83;;;3.00;;
28311;SDS011;15572;48.810;9.148;2023-05-29T16:59:31;3.08;;;2.42;;
28311;SDS011;15572;48.810;9.148;2023-05-29T17:04:27;4.38;;;2.92;;
28311;SDS011;15572;48.810;9.148;2023-05-29T17:09:24;5.93;;;3.00;;
28311;SDS011;15572;48.810;9.148;2023-05-29T17:14:21;5.38;;;3.00;;
28311;SDS011;15572;48.810;9.148;2023-05-29T17:19:20;3.75;;;3.10;;
28311;SDS011;15572;48.810;9.148;2023-05-29T17:24:16;9.60;;;3.40;;
28311;SDS011;15572;48.810;9.148;2023-05-29T17:29:13;4.25;;;3.33;;
28311;SDS011;15572;48.810;9.148;2023-05-29T17:34:10;4.50;;;3.17;;
28311;SDS011;15572;48.810;9.148;2023-05-29T17:39:08;5.07;;;3.30;;
28311;SDS011;15572;48.810;9.148;2023-05-29T17:44:04;5.20;;;3.22;;
28311;SDS011;15572;48.810;9.148;2023-05-29T17:49:01;5.57;;;3.40;;
28311;SDS011;15572;48.810;9.148;2023-05-29T17:53:58;4.38;;;3.50;;
28311;SDS011;15572;48.810;9.148;2023-05-29T17:58:55;6.25;;;3.40;;
28311;SDS011;15572;48.810;9.148;2023-05-29T18:03:52;6.63;;;3.10;;
28311;SDS011;15572;48.810;9.148;2023-05-29T18:08:48;5.72;;;3.60;;
28311;SDS011;15572;48.810;9.148;2023-05-29T18:13:45;6.28;;;3.50;;
28311;SDS011;15572;48.810;9.148;2023-05-29T18:18:43;7.82;;;4.05;;
28311;SDS011;15572;48.810;9.148;2023-05-29T18:23:39;5.05;;;3.58;;
28311;SDS011;15572;48.810;9.148;2023-05-29T18:28:38;5.43;;;3.60;;
28311;SDS011;15572;48.810;9.148;2023-05-29T18:33:35;7.25;;;4.00;;
28311;SDS011;15572;48.810;9.148;2023-05-29T18:38:32;8.40;;;3.65;;
28311;SDS011;15572;48.810;9.148;2023-05-29T18:43:29;7.15;;;4.20;;
28311;SDS011;15572;48.810;9.148;2023-05-29T18:48:25;4.88;;;3.92;;
28311;SDS011;15572;48.810;9.148;2023-05-29T18:53:22;5.22;;;4.13;;
28311;SDS011;15572;48.810;9.148;2023-05-29T18:58:20;6.57;;;3.63;;
28311;SDS011;15572;48.810;9.148;2023-05-29T19:03:17;5.30;;;4.15;;
28311;SDS011;15572;48.810;9.148;2023-05-29T19:08:13;10.85;;;4.28;;
28311;SDS011;15572;48.810;9.148;2023-05-29T19:13:12;5.63;;;4.15;;
28311;SDS011;15572;48.810;9.148;2023-05-29T19:18:10;5.90;;;4.10;;
28311;SDS011;15572;48.810;9.148;2023-05-29T19:23:06;7.60;;;4.18;;
28311;SDS011;15572;48.810;9.148;2023-05-29T19:28:03;7.03;;;3.97;;
28311;SDS011;15572;48.810;9.148;2023-05-29T19:33:03;6.53;;;4.10;;
28311;SDS011;15572;48.810;9.148;2023-05-29T19:38:01;8.35;;;4.15;;
28311;SDS011;15572;48.810;9.148;2023-05-29T19:42:57;5.53;;;3.90;;
28311;SDS011;15572;48.810;9.148;2023-05-29T19:47:54;7.38;;;4.32;;
28311;SDS011;15572;48.810;9.148;2023-05-29T19:52:50;6.03;;;4.38;;
28311;SDS011;15572;48.810;9.148;2023-05-29T19:57:48;6.47;;;4.18;;
28311;SDS011;15572;48.810;9.148;2023-05-29T20:02:45;6.25;;;4.05;;
28311;SDS011;15572;48.810;9.148;2023-05-29T20:07:41;5.07;;;4.00;;
28311;SDS011;15572;48.810;9.148;2023-05-29T20:12:38;6.93;;;4.13;;
28311;SDS011;15572;48.810;9.148;2023-05-29T20:17:35;6.63;;;4.38;;
28311;SDS011;15572;48.810;9.148;2023-05-29T20:22:32;8.70;;;4.75;;
28311;SDS011;15572;48.810;9.148;2023-05-29T20:27:29;6.53;;;4.80;;
28311;SDS011;15572;48.810;9.148;2023-05-29T20:32:25;8.73;;;4.95;;
28311;SDS011;15572;48.810;9.148;2023-05-29T20:37:23;6.88;;;4.60;;
28311;SDS011;15572;48.810;9.148;2023-05-29T20:42:20;5.47;;;4.25;;
28311;SDS011;15572;48.810;9.148;2023-05-29T20:47:18;7.50;;;4.93;;
28311;SDS011;15572;48.810;9.148;2023-05-29T20:52:16;8.32;;;4.85;;
28311;SDS011;15572;48.810;9.148;2023-05-29T20:57:14;6.63;;;4.82;;
28311;SDS011;15572;48.810;9.148;2023-05-29T21:02:10;7.78;;;5.00;;
28311;SDS011;15572;48.810;9.148;2023-05-29T21:07:07;7.07;;;4.68;;
28311;SDS011;15572;48.810;9.148;2023-05-29T21:12:06;6.97;;;4.55;;
28311;SDS011;15572;48.810;9.148;2023-05-29T21:17:04;6.25;;;4.43;;
28311;SDS011;15572;48.810;9.148;2023-05-29T21:22:01;6.05;;;4.47;;
28311;SDS011;15572;48.810;9.148;2023-05-29T21:26:58;6.15;;;4.32;;
28311;SDS011;15572;48.810;9.148;2023-05-29T21:31:55;7.63;;;5.00;;
28311;SDS011;15572;48.810;9.148;2023-05-29T21:36:54;8.70;;;4.75;;
28311;SDS011;15572;48.810;9.148;2023-05-29T21:41:51;8.15;;;4.28;;
28311;SDS011;15572;48.810;9.148;2023-05-29T21:46:48;6.50;;;4.40;;
28311;SDS011;15572;48.810;9.148;2023-05-29T21:51:45;6.77;;;4.73;;
28311;SDS011;15572;48.810;9.148;2023-05-29T21:56:42;8.47;;;4.60;;
28311;SDS011;15572;48.810;9.148;2023-05-29T22:01:39;6.30;;;4.57;;
28311;SDS011;15572;48.810;9.148;2023-05-29T22:06:36;6.70;;;4.67;;
28311;SDS011;15572;48.810;9.148;2023-05-29T22:11:33;6.27;;;4.60;;
28311;SDS011;15572;48.810;9.148;2023-05-29T22:16:34;7.27;;;4.40;;
28311;SDS011;15572;48.810;9.148;2023-05-29T22:21:30;6.37;;;4.37;;
28311;SDS011;15572;48.810;9.148;2023-05-29T22:26:27;8.93;;;4.80;;
28311;SDS011;15572;48.810;9.148;2023-05-29T22:31:24;7.53;;;4.37;;
28311;SDS011;15572;48.810;9.148;2023-05-29T22:36:22;6.33;;;4.77;;
28311;SDS011;15572;48.810;9.148;2023-05-29T22:41:19;7.53;;;4.67;;
28311;SDS011;15572;48.810;9.148;2023-05-29T22:46:15;7.00;;;4.90;;
28311;SDS011;15572;48.810;9.148;2023-05-29T22:51:12;7.03;;;4.80;;
28311;SDS011;15572;48.810;9.148;2023-05-29T22:56:12;6.23;;;4.50;;
28311;SDS011;15572;48.810;9.148;2023-05-29T23:01:08;9.00;;;4.00;;
28311;SDS011;15572;48.810;9.148;2023-05-29T23:06:05;5.83;;;3.90;;
28311;SDS011;15572;48.810;9.148;2023-05-29T23:11:02;8.30;;;4.57;;
28311;SDS011;15572;48.810;9.148;2023-05-29T23:15:59;7.23;;;4.40;;
28311;SDS011;15572;48.810;9.148;2023-05-29T23:20:56;8.20;;;4.20;;
28311;SDS011;15572;48.810;9.148;2023-05-29T23:25:52;6.97;;;4.07;;
28311;SDS011;15572;48.810;9.148;2023-05-29T23:30:49;6.20;;;4.13;;
28311;SDS011;15572;48.810;9.148;2023-05-29T23:35:47;4.90;;;3.93;;
28311;SDS011;15572;48.810;9.148;2023-05-29T23:40:43;5.63;;;3.93;;
28311;SDS011;15572;48.810;9.148;2023-05-29T23:45:40;6.43;;;3.47;;
28311;SDS011;15572;48.810;9.148;2023-05-29T23:50:37;6.37;;;4.13;;
28311;SDS011;15572;48.810;9.148;2023-05-29T23:55:34;6.00;;;3.90;;
